Time;durP1;ratioP1;P1;durP2;ratioP2;P2;SDS_P1;SDS_P2;PMS_P1;PMS_P2;Temp;Humidity;BMP_temperature;BMP_pressure;BME280_temperature;BME280_humidity;BME280_pressure;Samples;Min_cycle;Max_cycle;Signal;HPM_P1;HPM_P2
2022/03/02 00:02:32;;;;;;;48.15;28.63;;;;;;;5.81;100.00;102702.34;10458856;28;20069;-80
2022/03/02 00:07:32;;;;;;;40.22;28.30;;;;;;;5.77;100.00;102698.19;10457911;28;20562;-78
2022/03/02 00:12:33;;;;;;;56.42;27.90;;;;;;;5.77;99.62;102698.19;10457927;28;20037;-79
2022/03/02 00:17:34;;;;;;;48.63;30.58;;;;;;;5.79;99.98;102698.91;10461477;28;20036;-79
2022/03/02 00:22:34;;;;;;;35.83;26.10;;;;;;;5.75;100.00;102703.69;10488507;28;20064;-78
2022/03/02 00:27:35;;;;;;;41.97;26.77;;;;;;;5.84;99.00;102704.81;10496987;28;20029;-80
2022/03/02 00:32:35;;;;;;;44.25;26.95;;;;;;;5.93;97.65;102705.91;10499761;28;20059;-79
2022/03/02 00:37:36;;;;;;;42.13;28.92;;;;;;;6.01;96.84;102712.38;10479448;28;20044;-77
2022/03/02 00:42:36;;;;;;;45.15;26.92;;;;;;;6.06;96.93;102698.56;10501338;28;20045;-79
2022/03/02 00:47:37;;;;;;;32.38;25.05;;;;;;;5.97;99.51;102697.50;10487317;28;20044;-79
2022/03/02 00:52:38;;;;;;;42.00;25.88;;;;;;;5.94;99.91;102696.88;10463541;28;20099;-79
2022/03/02 00:57:38;;;;;;;40.80;29.67;;;;;;;5.91;99.55;102689.88;10471150;28;20096;-79
2022/03/02 01:02:39;;;;;;;47.72;27.42;;;;;;;5.86;99.27;102685.84;10497353;28;20029;-79
2022/03/02 01:07:39;;;;;;;37.35;25.73;;;;;;;5.85;98.22;102686.84;10460023;28;20021;-78
2022/03/02 01:12:39;;;;;;;32.53;26.55;;;;;;;5.88;97.64;102683.91;10456675;28;20025;-78
2022/03/02 01:17:40;;;;;;;38.55;25.65;;;;;;;5.92;97.78;102671.91;10487876;28;20048;-79
2022/03/02 01:22:40;;;;;;;39.13;24.15;;;;;;;5.81;96.11;102665.56;10481919;28;20068;-79
2022/03/02 01:27:42;;;;;;;42.08;26.38;;;;;;;5.83;96.31;102666.28;10480372;28;20415;-78
2022/03/02 01:32:43;;;;;;;36.08;26.80;;;;;;;5.85;95.98;102665.31;10482701;28;20033;-79
2022/03/02 01:37:43;;;;;;;40.80;26.95;;;;;;;5.81;96.18;102657.50;10495581;28;20048;-79
2022/03/02 01:42:43;;;;;;;37.90;25.45;;;;;;;5.77;96.00;102652.47;10474611;28;20047;-80
2022/03/02 01:47:44;;;;;;;33.92;24.30;;;;;;;5.75;96.21;102639.19;10472071;28;20084;-79
2022/03/02 01:52:44;;;;;;;37.75;26.48;;;;;;;5.67;95.39;102636.22;10467284;28;20057;-79
2022/03/02 01:57:45;;;;;;;40.28;26.15;;;;;;;5.73;95.65;102637.59;10466411;28;20037;-78
2022/03/02 02:02:46;;;;;;;37.08;25.58;;;;;;;5.68;95.78;102627.22;10469182;28;20037;-78
2022/03/02 02:07:46;;;;;;;40.75;25.33;;;;;;;5.64;95.50;102635.63;10431443;28;20036;-78
2022/03/02 02:12:47;;;;;;;38.75;24.70;;;;;;;5.53;95.46;102631.13;10470034;28;20056;-80
2022/03/02 02:17:47;;;;;;;36.72;22.92;;;;;;;5.40;95.57;102625.00;10472611;28;20055;-78
2022/03/02 02:22:47;;;;;;;35.63;24.30;;;;;;;5.33;96.41;102625.50;10476087;28;20041;-78
2022/03/02 02:27:48;;;;;;;35.97;23.52;;;;;;;5.30;95.59;102617.69;10472686;28;20040;-79
2022/03/02 02:32:48;;;;;;;38.45;28.30;;;;;;;5.35;95.52;102607.41;10450180;28;20029;-79
2022/03/02 02:37:49;;;;;;;35.53;24.02;;;;;;;5.35;95.38;102599.34;10461127;28;20041;-78
2022/03/02 02:42:49;;;;;;;44.55;27.92;;;;;;;5.37;95.33;102604.63;10444937;28;20508;-79
2022/03/02 02:47:54;;;;;;;42.53;25.83;;;;;;;5.38;95.46;102592.88;10445408;28;20025;-80
2022/03/02 02:52:55;;;;;;;35.63;24.65;;;;;;;5.36;95.98;102594.84;10465163;28;20059;-79
2022/03/02 02:57:56;;;;;;;40.95;26.10;;;;;;;5.42;95.65;102590.81;10481580;28;20037;-79
2022/03/02 03:02:57;;;;;;;38.30;26.23;;;;;;;5.44;94.84;102587.03;10492922;28;20035;-78
2022/03/02 03:08:03;;;;;;;39.78;24.92;;;;;;;5.52;95.18;102575.66;10486781;28;20013;-79
2022/03/02 03:13:03;;;;;;;44.97;25.80;;;;;;;5.63;94.08;102564.06;10485173;28;20239;-79
2022/03/02 03:18:04;;;;;;;35.80;24.90;;;;;;;5.67;94.08;102560.97;10500481;28;20029;-79
2022/03/02 03:23:05;;;;;;;33.35;25.60;;;;;;;5.66;94.67;102566.50;10498422;28;20036;-78
2022/03/02 03:28:06;;;;;;;32.53;24.17;;;;;;;5.68;95.00;102567.19;10490328;28;20036;-79
2022/03/02 03:33:06;;;;;;;45.67;23.05;;;;;;;5.61;94.69;102561.47;10488798;28;20040;-79
2022/03/02 03:38:06;;;;;;;31.08;24.30;;;;;;;5.57;93.83;102560.03;10492589;28;20033;-80
2022/03/02 03:43:07;;;;;;;37.63;25.85;;;;;;;5.53;94.01;102551.34;10488190;28;20029;-79
2022/03/02 03:48:07;;;;;;;30.17;23.85;;;;;;;5.52;93.86;102549.66;10470783;28;20044;-79
2022/03/02 03:53:10;;;;;;;36.38;24.70;;;;;;;5.53;93.85;102556.72;10488561;28;20057;-79
2022/03/02 03:58:10;;;;;;;41.00;24.48;;;;;;;5.55;92.84;102543.16;10455105;28;20052;-78
2022/03/02 04:03:12;;;;;;;35.08;23.42;;;;;;;5.57;92.03;102543.91;10487414;28;20033;-78
2022/03/02 04:08:12;;;;;;;32.85;26.13;;;;;;;5.59;92.10;102547.31;10492656;28;20052;-79
2022/03/02 04:13:13;;;;;;;33.67;24.35;;;;;;;5.63;91.94;102554.16;10483274;28;20037;-78
2022/03/02 04:18:13;;;;;;;39.33;26.17;;;;;;;5.60;92.23;102540.97;10499457;28;20041;-81
2022/03/02 04:23:13;;;;;;;33.60;22.90;;;;;;;5.53;90.95;102526.31;10498274;28;20041;-77
2022/03/02 04:28:14;;;;;;;30.42;22.35;;;;;;;5.55;90.81;102511.78;10500709;28;20040;-79
2022/03/02 04:33:14;;;;;;;33.30;24.40;;;;;;;5.48;90.64;102512.41;10499504;28;20033;-79
2022/03/02 04:38:15;;;;;;;39.67;25.65;;;;;;;5.33;90.73;102515.34;10497887;28;20056;-79
2022/03/02 04:43:17;;;;;;;39.22;27.17;;;;;;;5.32;90.92;102512.78;10496836;28;20044;-79
2022/03/02 04:48:17;;;;;;;35.30;25.38;;;;;;;5.33;91.81;102504.63;10471818;28;20433;-79
2022/03/02 04:53:18;;;;;;;35.22;25.35;;;;;;;5.34;91.75;102497.41;10465442;28;20048;-79
2022/03/02 04:58:19;;;;;;;38.95;26.40;;;;;;;5.38;91.99;102504.22;10449775;28;20033;-77
2022/03/02 05:03:19;;;;;;;39.28;25.25;;;;;;;5.33;91.83;102499.25;10465889;28;20531;-79
2022/03/02 05:08:20;;;;;;;38.90;27.25;;;;;;;5.40;91.78;102494.22;10474554;28;20037;-79
2022/03/02 05:13:20;;;;;;;32.63;18.35;;;;;;;5.39;90.71;102488.97;10468586;28;20033;-79
2022/03/02 05:18:20;;;;;;;33.25;23.83;;;;;;;5.42;90.99;102496.78;10456427;28;20377;-80
2022/03/02 05:23:21;;;;;;;36.25;26.30;;;;;;;5.42;90.21;102488.72;10471675;28;20033;-78
2022/03/02 05:28:21;;;;;;;34.92;21.38;;;;;;;5.44;89.17;102495.69;10475579;28;20058;-80
2022/03/02 05:33:22;;;;;;;29.98;22.45;;;;;;;5.44;88.86;102498.34;10468417;28;20029;-74
2022/03/02 05:38:22;;;;;;;38.75;26.23;;;;;;;5.53;88.89;102484.19;10465626;28;20542;-76
2022/03/02 05:43:22;;;;;;;29.75;21.42;;;;;;;5.50;87.80;102483.59;10463979;28;20461;-76
2022/03/02 05:48:23;;;;;;;39.03;24.55;;;;;;;5.57;88.17;102487.47;10466085;28;20089;-76
2022/03/02 05:53:23;;;;;;;31.85;21.67;;;;;;;5.56;87.72;102478.56;10466642;28;20053;-77
2022/03/02 05:58:25;;;;;;;37.47;26.10;;;;;;;5.62;89.70;102492.47;10447138;28;20384;-78
2022/03/02 06:03:26;;;;;;;34.30;22.30;;;;;;;5.56;90.08;102494.69;10455636;28;20060;-80
2022/03/02 06:08:27;;;;;;;34.50;24.70;;;;;;;5.55;89.60;102492.09;10384647;28;20057;-80
2022/03/02 06:13:28;;;;;;;30.40;19.45;;;;;;;5.57;89.25;102490.16;10446362;28;20369;-81
2022/03/02 06:18:31;;;;;;;30.70;22.20;;;;;;;5.50;88.40;102481.75;10461872;28;20025;-80
2022/03/02 06:23:32;;;;;;;33.22;23.63;;;;;;;5.52;88.21;102492.34;10461886;28;20044;-79
2022/03/02 06:28:32;;;;;;;32.47;22.33;;;;;;;5.50;87.28;102492.50;10444130;28;20383;-78
2022/03/02 06:33:32;;;;;;;37.75;21.17;;;;;;;5.45;86.35;102496.53;10462209;28;20029;-78
2022/03/02 06:38:33;;;;;;;30.30;21.52;;;;;;;5.50;86.47;102495.19;10469406;28;20514;-77
2022/03/02 06:43:37;;;;;;;31.45;20.92;;;;;;;5.48;84.95;102505.19;10464846;28;20045;-81
2022/03/02 06:48:50;;;;;;;40.88;22.55;;;;;;;5.50;84.04;102505.06;10460148;28;20036;-80
2022/03/02 06:53:51;;;;;;;36.67;23.38;;;;;;;5.47;82.79;102508.00;10460023;28;20048;-80
2022/03/02 06:58:55;;;;;;;27.73;21.08;;;;;;;5.47;81.76;102510.69;10460173;28;20029;-80
2022/03/02 07:03:57;;;;;;;32.78;20.98;;;;;;;5.52;80.83;102509.34;10459990;28;20037;-79
2022/03/02 07:08:57;;;;;;;30.23;18.75;;;;;;;5.53;77.68;102526.31;10442085;28;20575;-79
2022/03/02 07:13:58;;;;;;;28.90;20.90;;;;;;;5.56;77.72;102526.06;10441485;28;20068;-79
2022/03/02 07:18:58;;;;;;;31.50;18.33;;;;;;;5.62;76.18;102519.34;10440943;28;20037;-79
2022/03/02 07:24:06;;;;;;;31.33;18.58;;;;;;;5.69;75.99;102521.41;10458648;28;20037;-79
2022/03/02 07:29:07;;;;;;;29.15;19.92;;;;;;;5.70;74.93;102512.34;10441022;28;20037;-78
2022/03/02 07:34:10;;;;;;;22.05;14.73;;;;;;;5.75;74.76;102510.16;10458094;28;20135;-79
2022/03/02 07:39:11;;;;;;;21.00;17.25;;;;;;;5.77;72.93;102513.53;10423804;28;20470;-79
2022/03/02 07:44:11;;;;;;;23.65;16.67;;;;;;;5.85;73.44;102514.78;10440184;28;20184;-80
2022/03/02 07:49:12;;;;;;;21.38;16.60;;;;;;;5.93;70.61;102518.53;10457849;28;20045;-80
2022/03/02 07:54:13;;;;;;;30.25;19.80;;;;;;;6.05;69.88;102508.59;10446734;28;20064;-79
2022/03/02 07:59:14;;;;;;;24.38;16.30;;;;;;;6.30;70.35;102520.84;10408251;28;20124;-79
2022/03/02 08:04:14;;;;;;;24.73;17.00;;;;;;;6.74;66.11;102511.66;10457879;28;20037;-79
2022/03/02 08:09:14;;;;;;;25.42;16.88;;;;;;;7.35;64.91;102507.25;10456258;28;20460;-79
2022/03/02 08:14:18;;;;;;;29.67;15.10;;;;;;;7.73;62.27;102514.59;10457528;28;20036;-79
2022/03/02 08:19:18;;;;;;;38.05;16.38;;;;;;;7.65;62.47;102515.25;10457493;28;20468;-78
2022/03/02 08:24:19;;;;;;;15.45;13.43;;;;;;;7.45;61.63;102513.53;10439150;28;20091;-79
2022/03/02 08:29:19;;;;;;;33.78;19.25;;;;;;;7.60;62.66;102517.53;10439289;28;20051;-79
2022/03/02 08:34:20;;;;;;;27.55;18.17;;;;;;;7.88;61.31;102515.00;10455498;28;20028;-78
2022/03/02 08:39:20;;;;;;;23.23;15.18;;;;;;;8.43;60.17;102519.91;10439771;28;20071;-79
2022/03/02 08:44:22;;;;;;;19.50;13.50;;;;;;;8.69;54.96;102509.34;10455883;28;20539;-78
2022/03/02 08:49:22;;;;;;;23.33;14.60;;;;;;;8.98;57.42;102504.69;10456628;28;20051;-79
2022/03/02 08:54:23;;;;;;;23.98;15.15;;;;;;;9.25;53.42;102505.72;10457031;28;20400;-79
2022/03/02 08:59:23;;;;;;;20.27;14.15;;;;;;;9.77;54.15;102489.78;10455123;28;20167;-79
2022/03/02 09:04:23;;;;;;;25.35;14.65;;;;;;;10.16;49.85;102490.31;10441357;28;20036;-78
2022/03/02 09:09:24;;;;;;;21.08;16.35;;;;;;;10.73;50.05;102492.66;10456017;28;20029;-79
2022/03/02 09:14:24;;;;;;;17.52;13.73;;;;;;;10.74;47.60;102477.22;10460713;28;20436;-79
2022/03/02 09:19:25;;;;;;;19.55;12.95;;;;;;;10.67;44.87;102485.16;10467015;28;20032;-80
2022/03/02 09:24:27;;;;;;;23.08;14.02;;;;;;;10.77;45.59;102480.47;10456237;28;20469;-80
2022/03/02 09:29:29;;;;;;;19.33;13.27;;;;;;;11.32;44.79;102479.22;10405391;28;20029;-77
2022/03/02 09:34:30;;;;;;;18.20;13.25;;;;;;;11.75;43.77;102474.59;10459698;28;20135;-78
2022/03/02 09:39:30;;;;;;;15.38;11.02;;;;;;;12.21;42.45;102470.41;10437360;28;20107;-78
2022/03/02 09:44:34;;;;;;;20.35;14.77;;;;;;;12.31;42.38;102473.78;10437817;28;20052;-79
2022/03/02 09:49:35;;;;;;;18.77;12.93;;;;;;;12.87;41.92;102457.59;10436766;28;20037;-79
2022/03/02 09:54:37;;;;;;;17.70;13.15;;;;;;;12.89;40.16;102457.41;10442798;28;20082;-77
2022/03/02 09:59:38;;;;;;;27.67;13.63;;;;;;;12.86;41.56;102460.47;10444596;28;20469;-78
2022/03/02 10:04:40;;;;;;;18.48;13.52;;;;;;;12.99;40.68;102461.63;10462058;28;20465;-79
2022/03/02 10:09:41;;;;;;;17.67;13.70;;;;;;;12.96;39.64;102472.00;10445143;28;20040;-79
2022/03/02 10:14:42;;;;;;;15.60;11.88;;;;;;;13.30;37.63;102454.56;10444674;28;20392;-78
2022/03/02 10:19:45;;;;;;;19.20;12.88;;;;;;;13.33;36.88;102444.16;10454678;28;20041;-80
2022/03/02 10:24:48;;;;;;;21.27;14.90;;;;;;;13.29;36.88;102448.25;10462003;28;20167;-79
2022/03/02 10:29:54;;;;;;;13.27;11.43;;;;;;;13.27;36.62;102444.88;10461818;28;20040;-79
2022/03/02 10:34:59;;;;;;;18.65;11.95;;;;;;;13.33;37.26;102451.47;10444609;28;20067;-80
2022/03/02 10:40:09;;;;;;;17.25;12.73;;;;;;;13.57;36.28;102432.28;10459611;28;20087;-80
2022/03/02 10:45:17;;;;;;;21.63;12.38;;;;;;;13.39;37.01;102437.16;10445427;28;20035;-80
2022/03/02 10:50:17;;;;;;;15.90;10.82;;;;;;;13.48;36.71;102430.66;10442569;28;20384;-80
2022/03/02 10:55:18;;;;;;;26.35;13.27;;;;;;;13.71;36.71;102417.88;10442012;28;20056;-79
2022/03/02 11:00:19;;;;;;;19.63;12.25;;;;;;;13.93;36.64;102420.81;10442892;28;20480;-79
2022/03/02 11:05:19;;;;;;;22.13;12.88;;;;;;;13.86;36.75;102419.84;10442148;28;20037;-80
2022/03/02 11:10:20;;;;;;;20.83;12.15;;;;;;;13.54;36.35;102416.31;10461868;28;20491;-79
2022/03/02 11:15:21;;;;;;;19.42;12.93;;;;;;;13.70;37.43;102399.88;10460300;28;20060;-79
2022/03/02 11:20:21;;;;;;;11.20;10.02;;;;;;;13.88;35.75;102418.63;10463046;28;20491;-79
2022/03/02 11:25:51;;;;;;;19.13;13.07;;;;;;;13.57;36.76;102405.06;10427410;28;20049;-78
2022/03/02 11:30:55;;;;;;;14.60;11.95;;;;;;;13.22;36.66;102395.56;10463393;28;20453;-81
2022/03/02 11:36:06;;;;;;;26.58;12.40;;;;;;;13.58;38.57;102400.47;10458047;28;20487;-79
2022/03/02 11:41:07;;;;;;;17.00;12.52;;;;;;;13.92;36.93;102397.34;10445316;28;20041;-79
2022/03/02 11:46:09;;;;;;;22.17;13.70;;;;;;;13.75;38.17;102379.41;10463812;28;20079;-78
2022/03/02 11:51:18;;;;;;;13.45;10.48;;;;;;;14.18;36.85;102378.69;10460684;28;20063;-79
2022/03/02 11:56:20;;;;;;;18.40;13.55;;;;;;;13.96;36.89;102371.41;10420488;28;20128;-80
2022/03/02 12:01:21;;;;;;;18.80;14.20;;;;;;;13.71;38.12;102371.59;10420384;28;20045;-79
2022/03/02 12:06:21;;;;;;;22.17;14.20;;;;;;;13.78;37.21;102365.44;10388296;28;20029;-80
2022/03/02 12:11:26;;;;;;;16.67;11.48;;;;;;;13.63;37.29;102365.41;10422108;28;20101;-80
2022/03/02 12:16:39;;;;;;;19.30;13.45;;;;;;;14.01;36.88;102346.34;10405886;28;20052;-80
2022/03/02 12:21:39;;;;;;;14.10;12.05;;;;;;;13.96;36.67;102344.19;10403207;28;20037;-80
2022/03/02 12:26:46;;;;;;;13.70;11.18;;;;;;;14.04;37.04;102344.13;10421408;28;20033;-80
2022/03/02 12:31:49;;;;;;;14.73;11.52;;;;;;;13.87;36.09;102337.13;10421418;28;20112;-77
2022/03/02 12:36:49;;;;;;;16.05;11.63;;;;;;;13.51;36.23;102324.16;10409015;28;20104;-80
2022/03/02 12:41:49;;;;;;;21.70;12.32;;;;;;;13.58;37.89;102316.94;10421365;28;20069;-77
2022/03/02 12:46:50;;;;;;;15.55;9.75;;;;;;;13.84;35.96;102329.31;10405052;28;20044;-78
2022/03/02 12:51:50;;;;;;;13.10;11.82;;;;;;;14.13;36.00;102304.84;10397309;28;20057;-78
2022/03/02 12:56:51;;;;;;;14.23;9.13;;;;;;;13.79;35.27;102302.66;10426211;28;20036;-77
2022/03/02 13:01:51;;;;;;;20.65;12.95;;;;;;;13.67;37.17;102302.25;10421003;28;20041;-79
2022/03/02 13:06:56;;;;;;;16.40;10.32;;;;;;;12.90;36.68;102294.09;10424093;28;20112;-79
2022/03/02 13:12:34;;;;;;;21.45;11.57;;;;;;;12.82;37.73;102279.69;10423239;28;20403;-80
2022/03/02 13:17:34;;;;;;;22.35;10.90;;;;;;;12.70;37.56;102287.41;10470096;28;20033;-78
2022/03/02 13:22:37;;;;;;;22.83;10.85;;;;;;;12.63;36.90;102276.38;10436743;28;20029;-79
2022/03/02 13:28:06;;;;;;;19.30;11.43;;;;;;;12.81;36.29;102267.97;10459907;28;20041;-78
2022/03/02 13:33:07;;;;;;;14.98;10.07;;;;;;;12.98;37.08;102274.16;10479970;28;20122;-79
2022/03/02 13:38:11;;;;;;;14.68;9.18;;;;;;;12.92;36.52;102267.59;10461583;28;20047;-78
2022/03/02 13:43:11;;;;;;;12.57;9.85;;;;;;;12.84;36.60;102264.91;10477490;28;20041;-78
2022/03/02 13:48:19;;;;;;;13.63;9.23;;;;;;;12.59;34.52;102256.03;10446313;28;20029;-79
2022/03/02 13:53:34;;;;;;;10.90;8.13;;;;;;;12.01;34.37;102268.16;10427494;28;20765;-80
2022/03/02 13:58:35;;;;;;;9.32;7.25;;;;;;;12.03;34.74;102247.97;10445922;28;20033;-80
2022/03/02 14:03:39;;;;;;;15.88;9.63;;;;;;;12.07;34.19;102254.72;10463109;28;20085;-79
2022/03/02 14:08:46;;;;;;;9.00;7.43;;;;;;;12.03;34.87;102247.13;10462670;28;20041;-79
2022/03/02 14:13:47;;;;;;;14.02;7.72;;;;;;;12.06;34.61;102238.59;10462378;28;20166;-81
2022/03/02 14:19:02;;;;;;;15.25;8.52;;;;;;;11.96;34.75;102229.81;10443440;28;20061;-78
2022/03/02 14:24:13;;;;;;;15.23;9.05;;;;;;;11.99;35.17;102221.31;10462092;28;20033;-79
2022/03/02 14:29:15;;;;;;;15.95;9.57;;;;;;;12.14;35.72;102216.00;10429572;28;20107;-80
2022/03/02 14:34:15;;;;;;;13.00;9.70;;;;;;;12.09;36.11;102211.09;10462094;28;20112;-80
2022/03/02 14:39:16;;;;;;;23.35;11.48;;;;;;;11.95;37.90;102206.41;10444572;28;20032;-78
2022/03/02 14:44:16;;;;;;;20.17;12.07;;;;;;;11.89;36.24;102197.09;10461323;28;20119;-78
2022/03/02 14:49:17;;;;;;;13.73;10.30;;;;;;;11.58;37.42;102203.25;10443084;28;20115;-78
2022/03/02 14:54:17;;;;;;;19.45;11.25;;;;;;;11.32;38.61;102200.72;10414593;28;20147;-79
2022/03/02 14:59:18;;;;;;;21.52;12.73;;;;;;;11.21;39.13;102200.22;10419134;28;20160;-77
2022/03/02 15:04:18;;;;;;;19.38;12.07;;;;;;;11.23;39.43;102182.78;10403684;28;20044;-76
2022/03/02 15:09:19;;;;;;;20.75;13.43;;;;;;;11.06;39.88;102184.63;10405587;28;20029;-78
2022/03/02 15:19:44;;;;;;;18.95;12.23;;;;;;;10.90;40.50;102174.63;10419015;28;20033;-80
2022/03/02 15:24:52;;;;;;;14.30;12.15;;;;;;;10.72;41.53;102165.81;10400487;28;20037;-78
2022/03/02 15:29:53;;;;;;;35.10;14.93;;;;;;;10.56;42.89;102171.19;10401036;28;20092;-80
2022/03/02 15:34:54;;;;;;;22.23;13.95;;;;;;;10.31;43.16;102163.03;10417837;28;20029;-80
2022/03/02 15:39:58;;;;;;;16.27;11.77;;;;;;;10.20;43.33;102160.56;10416197;28;20053;-79
2022/03/02 15:45:13;;;;;;;23.55;14.10;;;;;;;10.06;43.94;102153.09;10401565;28;20037;-80
2022/03/02 15:50:19;;;;;;;19.65;12.48;;;;;;;10.08;45.11;102140.22;10399837;28;20072;-79
2022/03/02 15:55:23;;;;;;;13.97;10.53;;;;;;;9.97;44.87;102142.22;10452754;28;20049;-79
2022/03/02 16:00:25;;;;;;;20.77;11.55;;;;;;;9.81;44.49;102141.31;10457636;28;20384;-79
2022/03/02 16:05:37;;;;;;;18.80;11.73;;;;;;;9.83;44.69;102126.63;10458328;28;20083;-80
2022/03/02 16:10:38;;;;;;;19.75;13.07;;;;;;;9.82;45.42;102124.91;10440711;28;20033;-80
2022/03/02 16:15:40;;;;;;;26.40;10.82;;;;;;;9.78;45.83;102131.66;10407066;28;20422;-79
2022/03/02 16:20:41;;;;;;;21.38;11.80;;;;;;;9.78;45.90;102118.97;10440788;28;20120;-78
2022/03/02 16:25:43;;;;;;;14.48;10.65;;;;;;;9.75;46.26;102123.88;10456900;28;20564;-77
2022/03/02 16:30:46;;;;;;;20.38;11.65;;;;;;;9.71;47.18;102112.53;10422506;28;20100;-78
2022/03/02 16:35:47;;;;;;;19.75;13.38;;;;;;;9.59;47.95;102118.38;10439168;28;20531;-78
2022/03/02 16:40:48;;;;;;;18.00;11.88;;;;;;;9.46;47.60;102108.84;10438857;28;20109;-79
2022/03/02 16:45:50;;;;;;;20.70;12.82;;;;;;;9.32;47.42;102120.28;10423609;28;20464;-79
2022/03/02 16:50:50;;;;;;;17.35;11.30;;;;;;;9.36;48.09;102123.50;10456670;28;20033;-78
2022/03/02 16:55:51;;;;;;;24.40;12.05;;;;;;;9.22;48.17;102117.69;10439815;28;20048;-79
2022/03/02 17:00:51;;;;;;;21.83;13.00;;;;;;;9.17;48.42;102114.59;10459959;28;20431;-79
2022/03/02 17:05:52;;;;;;;16.50;12.63;;;;;;;9.07;49.50;102112.00;10446912;28;20060;-79
2022/03/02 17:10:53;;;;;;;22.30;14.63;;;;;;;8.91;49.30;102119.13;10446515;28;20116;-79
2022/03/02 17:15:53;;;;;;;19.92;12.75;;;;;;;8.82;49.31;102123.59;10465538;28;20091;-77
2022/03/02 17:20:54;;;;;;;16.92;11.82;;;;;;;8.74;50.06;102126.22;10463685;28;20411;-79
2022/03/02 17:25:54;;;;;;;23.05;13.68;;;;;;;8.68;51.52;102116.91;10445559;28;20074;-80
2022/03/02 17:30:55;;;;;;;27.08;14.52;;;;;;;8.55;55.09;102128.09;10445401;28;20029;-80
2022/03/02 17:35:55;;;;;;;23.92;14.93;;;;;;;8.50;56.09;102127.72;10463362;28;20034;-79
2022/03/02 17:40:56;;;;;;;20.88;15.15;;;;;;;8.38;57.16;102124.38;10446211;28;20447;-79
2022/03/02 17:45:56;;;;;;;25.05;16.48;;;;;;;8.26;57.17;102113.91;10446077;28;20052;-79
2022/03/02 17:50:56;;;;;;;27.27;14.63;;;;;;;8.14;57.34;102119.56;10462091;28;20029;-80
2022/03/02 17:55:57;;;;;;;22.42;14.85;;;;;;;7.97;57.99;102123.03;10424151;28;20060;-79
2022/03/02 18:00:57;;;;;;;22.00;13.75;;;;;;;7.83;58.14;102120.84;10421388;28;20029;-79
2022/03/02 18:05:58;;;;;;;27.73;13.88;;;;;;;7.66;57.58;102131.44;10422295;28;20038;-78
2022/03/02 18:10:58;;;;;;;24.52;12.90;;;;;;;7.54;57.35;102129.06;10419234;28;20060;-79
2022/03/02 18:15:58;;;;;;;25.80;14.27;;;;;;;7.44;57.25;102135.34;10420532;28;20095;-77
2022/03/02 18:21:00;;;;;;;20.42;14.32;;;;;;;7.30;57.30;102133.09;10420390;28;20042;-78
2022/03/02 18:26:06;;;;;;;24.88;13.20;;;;;;;7.02;57.88;102123.22;10403930;28;20050;-78
2022/03/02 18:31:06;;;;;;;20.50;13.98;;;;;;;6.86;58.86;102123.81;10403024;28;20033;-78
2022/03/02 18:36:07;;;;;;;22.92;15.02;;;;;;;6.81;59.42;102128.81;10402548;28;20040;-79
2022/03/02 18:41:07;;;;;;;22.13;13.95;;;;;;;6.78;59.86;102129.09;10404777;28;20373;-80
2022/03/02 18:46:08;;;;;;;18.42;14.55;;;;;;;6.65;61.19;102121.31;10406512;28;20103;-79
2022/03/02 18:51:08;;;;;;;26.33;14.45;;;;;;;6.55;61.26;102121.31;10431307;28;20536;-76
2022/03/02 18:56:09;;;;;;;18.67;14.23;;;;;;;6.49;61.03;102124.56;10473139;28;20040;-78
2022/03/02 19:01:10;;;;;;;16.42;11.95;;;;;;;6.49;60.07;102132.63;10445437;28;20037;-78
2022/03/02 19:06:14;;;;;;;24.85;13.43;;;;;;;6.48;59.04;102136.31;10442308;28;20449;-80
2022/03/02 19:11:15;;;;;;;20.77;12.88;;;;;;;6.46;57.82;102132.91;10460215;28;20151;-79
2022/03/02 19:16:15;;;;;;;18.08;11.65;;;;;;;6.39;56.38;102134.47;10441443;28;20061;-78
2022/03/02 19:21:17;;;;;;;11.45;8.77;;;;;;;6.28;55.11;102125.50;10458595;28;20041;-80
2022/03/02 19:26:17;;;;;;;19.85;11.75;;;;;;;6.28;54.31;102119.28;10423870;28;20465;-78
2022/03/02 19:31:18;;;;;;;19.05;10.20;;;;;;;6.23;53.42;102124.25;10458640;28;20029;-78
2022/03/02 19:36:18;;;;;;;18.65;10.38;;;;;;;6.22;53.27;102128.78;10459031;28;20041;-79
2022/03/02 19:41:19;;;;;;;13.95;8.68;;;;;;;6.16;53.27;102131.13;10440157;28;20045;-78
2022/03/02 19:46:19;;;;;;;17.77;10.40;;;;;;;6.02;52.62;102116.25;10458395;28;20033;-79
2022/03/02 19:51:20;;;;;;;14.85;10.18;;;;;;;5.98;52.47;102117.53;10407275;28;20033;-79
2022/03/02 19:56:21;;;;;;;16.13;10.75;;;;;;;5.85;52.95;102116.91;10440964;28;20056;-79
2022/03/02 20:01:21;;;;;;;16.23;10.68;;;;;;;5.82;53.52;102118.03;10457797;28;20464;-79
2022/03/02 20:06:22;;;;;;;19.50;11.48;;;;;;;5.75;53.46;102124.94;10457736;28;20099;-78
2022/03/02 20:11:22;;;;;;;13.80;10.57;;;;;;;5.69;53.73;102123.63;10457710;28;20083;-78
2022/03/02 20:16:23;;;;;;;9.98;8.95;;;;;;;5.47;54.14;102113.91;10439719;28;20108;-80
2022/03/02 20:21:24;;;;;;;17.15;11.75;;;;;;;5.52;54.56;102121.56;10456456;28;20080;-77
2022/03/02 20:26:24;;;;;;;12.63;10.98;;;;;;;5.49;54.61;102121.84;10406105;28;20425;-78
2022/03/02 20:31:25;;;;;;;14.95;11.55;;;;;;;5.36;54.52;102116.72;10456857;28;20101;-80
2022/03/02 20:36:25;;;;;;;18.70;10.35;;;;;;;5.18;54.92;102119.16;10437669;28;20108;-79
2022/03/02 20:41:26;;;;;;;14.65;12.10;;;;;;;5.17;55.15;102116.56;10439263;28;20090;-78
2022/03/02 20:46:26;;;;;;;12.70;9.55;;;;;;;5.07;55.60;102116.50;10456732;28;20060;-78
2022/03/02 20:51:26;;;;;;;17.50;11.88;;;;;;;5.07;55.67;102108.47;10421277;28;20473;-79
2022/03/02 20:56:27;;;;;;;17.48;11.88;;;;;;;4.93;55.90;102119.53;10406711;28;20095;-78
2022/03/02 21:01:29;;;;;;;13.73;10.77;;;;;;;4.96;55.99;102113.91;10422059;28;20068;-78
2022/03/02 21:06:30;;;;;;;16.88;11.90;;;;;;;4.86;56.36;102119.22;10438855;28;20106;-78
2022/03/02 21:11:30;;;;;;;14.43;12.57;;;;;;;4.85;56.78;102112.13;10454203;28;20078;-77
2022/03/02 21:16:30;;;;;;;19.67;10.25;;;;;;;4.77;56.63;102107.41;10456820;28;20033;-78
2022/03/02 21:21:31;;;;;;;21.73;12.35;;;;;;;4.74;56.90;102107.69;10456589;28;20112;-77
2022/03/02 21:26:31;;;;;;;13.95;10.52;;;;;;;4.70;56.54;102111.63;10455612;28;20033;-77
2022/03/02 21:31:32;;;;;;;18.65;11.90;;;;;;;4.71;56.86;102101.72;10437036;28;20116;-78
2022/03/02 21:36:32;;;;;;;17.00;12.45;;;;;;;4.58;57.22;102099.22;10456598;28;20441;-77
2022/03/02 21:41:32;;;;;;;17.38;13.07;;;;;;;4.51;57.47;102090.84;10454964;28;20029;-77
2022/03/02 21:46:33;;;;;;;16.85;12.55;;;;;;;4.46;57.48;102094.88;10456420;28;20041;-76
2022/03/02 21:51:33;;;;;;;19.60;10.88;;;;;;;4.46;56.99;102094.88;10459037;28;20147;-78
2022/03/02 21:56:34;;;;;;;21.52;13.18;;;;;;;4.50;56.85;102085.59;10422126;28;20103;-78
2022/03/02 22:01:37;;;;;;;12.43;10.48;;;;;;;4.45;56.57;102087.81;10422015;28;20123;-77
2022/03/02 22:06:37;;;;;;;14.38;11.45;;;;;;;4.50;56.00;102088.28;10420539;28;20033;-78
2022/03/02 22:11:37;;;;;;;30.95;12.82;;;;;;;4.50;56.10;102082.91;10404814;28;20503;-80
2022/03/02 22:16:38;;;;;;;14.70;12.60;;;;;;;4.47;56.56;102084.03;10404188;28;20052;-79
2022/03/02 22:21:38;;;;;;;20.58;12.85;;;;;;;4.40;57.07;102086.38;10421426;28;20405;-80
2022/03/02 22:26:39;;;;;;;27.35;14.80;;;;;;;4.12;57.23;102087.81;10423140;28;20033;-79
2022/03/02 22:31:39;;;;;;;19.25;13.25;;;;;;;4.01;58.78;102073.59;10419196;28;20462;-78
2022/03/02 22:36:40;;;;;;;22.58;14.52;;;;;;;3.85;59.06;102080.19;10419085;28;20029;-79
2022/03/02 22:41:40;;;;;;;19.63;14.70;;;;;;;3.72;59.71;102074.97;10419433;28;20030;-80
2022/03/02 22:46:45;;;;;;;22.58;15.27;;;;;;;3.62;60.19;102073.19;10418776;28;20037;-80
2022/03/02 22:51:45;;;;;;;25.00;14.02;;;;;;;3.64;61.58;102077.44;10420711;28;20110;-79